createdAt,value
2023-03-06T00:03:33.707Z,100782.66
2023-03-06T00:09:20.439Z,100774.69
2023-03-06T00:15:08.397Z,100777.09
2023-03-06T00:20:55.174Z,100775.16
2023-03-06T00:26:42.046Z,100768.03
2023-03-06T00:32:29.422Z,100767.59
2023-03-06T00:38:16.196Z,100764.63
2023-03-06T00:44:02.878Z,100765.56
2023-03-06T00:49:50.652Z,100763.47
2023-03-06T00:55:37.428Z,100750.50
2023-03-06T01:01:27.173Z,100744.41
2023-03-06T01:07:13.938Z,100738.50
2023-03-06T01:13:00.753Z,100743.41
2023-03-06T01:18:48.149Z,100738.50
2023-03-06T01:24:35.789Z,100733.19
2023-03-06T01:30:22.669Z,100726.38
2023-03-06T01:36:12.377Z,100719.06
2023-03-06T01:41:59.055Z,100702.06
2023-03-06T01:47:45.966Z,100685.78
2023-03-06T01:53:32.950Z,100691.34
2023-03-06T01:59:21.922Z,100694.31
2023-03-06T02:05:09.130Z,100694.50
2023-03-06T02:11:09.412Z,100681.09
2023-03-06T02:16:56.085Z,100678.56
2023-03-06T02:23:03.934Z,100689.06
2023-03-06T02:28:50.799Z,100676.00
2023-03-06T02:34:37.629Z,100669.56
2023-03-06T02:40:25.200Z,100662.50
2023-03-06T02:46:13.807Z,100666.31
2023-03-06T02:52:03.936Z,100664.59
2023-03-06T02:57:51.332Z,100648.41
2023-03-06T03:03:39.888Z,100653.31
2023-03-06T03:09:26.963Z,100638.94
2023-03-06T03:15:14.293Z,100642.50
2023-03-06T03:21:01.628Z,100638.50
2023-03-06T03:26:48.617Z,100621.63
2023-03-06T03:32:38.474Z,100611.56
2023-03-06T03:38:25.882Z,100610.59
2023-03-06T03:44:14.448Z,100608.06
2023-03-06T03:50:01.417Z,100595.44
2023-03-06T03:55:49.164Z,100604.91
2023-03-06T04:01:39.872Z,100588.88
2023-03-06T04:07:27.757Z,100597.59
2023-03-06T04:13:14.962Z,100585.88
2023-03-06T04:19:05.060Z,100576.88
2023-03-06T04:24:51.935Z,100572.25
2023-03-06T04:30:39.934Z,100571.53
2023-03-06T04:36:30.430Z,100565.97
2023-03-06T04:42:24.047Z,100546.63
2023-03-06T04:48:14.784Z,100539.13
2023-03-06T04:54:01.437Z,100526.59
2023-03-06T04:59:49.663Z,100532.97
2023-03-06T05:05:36.659Z,100535.91
2023-03-06T05:11:23.668Z,100534.88
2023-03-06T05:17:10.762Z,100534.09
2023-03-06T05:22:57.393Z,100525.47
2023-03-06T05:28:44.248Z,100532.84
2023-03-06T05:34:30.974Z,100532.50
2023-03-06T05:40:18.619Z,100524.47
2023-03-06T05:46:07.125Z,100514.03
2023-03-06T05:51:54.193Z,100502.50
2023-03-06T05:57:40.961Z,100491.31
2023-03-06T06:03:27.936Z,100472.56
2023-03-06T06:09:15.083Z,100477.38
2023-03-06T06:15:01.925Z,100481.66
2023-03-06T06:20:48.893Z,100485.31
2023-03-06T06:26:35.746Z,100494.47
2023-03-06T06:32:25.453Z,100484.44
2023-03-06T06:38:15.988Z,100478.94
2023-03-06T06:44:08.506Z,100477.28
2023-03-06T06:49:56.471Z,100481.50
2023-03-06T06:55:43.832Z,100475.63
2023-03-06T07:01:31.058Z,100477.78
2023-03-06T07:07:17.780Z,100471.06
2023-03-06T07:13:04.464Z,100468.09
2023-03-06T07:18:51.483Z,100456.06
2023-03-06T07:24:39.529Z,100465.56
2023-03-06T07:30:26.530Z,100450.00
2023-03-06T07:36:13.994Z,100473.75
2023-03-06T07:42:01.015Z,100461.91
2023-03-06T07:47:50.767Z,100443.31
2023-03-06T07:53:37.702Z,100457.06
2023-03-06T07:59:25.736Z,100448.69
2023-03-06T08:05:15.171Z,100434.16
2023-03-06T08:11:05.187Z,100424.22
2023-03-06T08:16:54.039Z,100414.75
2023-03-06T08:24:19.295Z,100416.78
2023-03-06T08:30:08.877Z,100406.03
2023-03-06T08:36:01.349Z,100406.25
2023-03-06T08:41:52.694Z,100410.81
2023-03-06T08:47:44.560Z,100411.09
2023-03-06T08:53:42.679Z,100406.41
2023-03-06T08:59:31.569Z,100396.97
2023-03-06T09:05:40.300Z,100405.53
2023-03-06T09:11:32.077Z,100401.34
2023-03-06T09:17:21.867Z,100390.66
2023-03-06T09:23:10.302Z,100392.94
2023-03-06T09:29:21.391Z,100392.56
2023-03-06T09:35:10.052Z,100377.44
2023-03-06T09:41:02.655Z,100363.31
2023-03-06T09:54:30.446Z,100343.81
2023-03-06T10:00:26.608Z,100340.63
2023-03-06T10:06:33.787Z,100346.16
2023-03-06T10:12:28.807Z,100335.03
2023-03-06T10:18:17.204Z,100336.06
2023-03-06T10:24:31.344Z,100330.41
2023-03-06T10:37:40.882Z,100326.09
2023-03-06T10:43:28.280Z,100311.53
2023-03-06T10:49:26.493Z,100307.09
2023-03-06T10:55:37.946Z,100287.16
2023-03-06T11:01:33.676Z,100277.59
2023-03-06T11:07:41.142Z,100281.75
2023-03-06T11:13:35.568Z,100295.09
2023-03-06T11:19:32.929Z,100277.94
2023-03-06T11:26:29.051Z,100273.88
2023-03-06T11:32:59.967Z,100259.25
2023-03-06T11:38:52.644Z,100263.19
2023-03-06T11:44:50.573Z,100247.75
2023-03-06T11:50:41.499Z,100238.19
2023-03-06T11:56:44.375Z,100236.28
2023-03-06T12:02:46.663Z,100222.13
2023-03-06T12:08:58.608Z,100210.34
2023-03-06T12:15:05.783Z,100195.00
2023-03-06T12:21:08.844Z,100186.44
2023-03-06T12:27:30.778Z,100174.72
2023-03-06T12:33:46.972Z,100161.00
2023-03-06T12:39:40.737Z,100148.75
2023-03-06T12:45:34.302Z,100143.41
2023-03-06T12:51:21.588Z,100130.72
2023-03-06T12:57:09.592Z,100123.03
2023-03-06T13:03:28.686Z,100118.63
2023-03-06T13:10:00.371Z,100118.53
2023-03-06T13:16:09.895Z,100096.50
2023-03-06T13:21:56.769Z,100095.00
2023-03-06T13:27:55.694Z,100085.47
2023-03-06T13:33:54.656Z,100072.88
2023-03-06T13:40:00.648Z,100064.69
2023-03-06T13:45:48.922Z,100058.97
2023-03-06T13:51:57.461Z,100039.66
2023-03-06T13:58:32.095Z,100053.56
2023-03-06T14:04:46.708Z,100030.19
2023-03-06T14:10:35.883Z,100058.16
2023-03-06T14:16:24.253Z,100063.50
2023-03-06T14:22:21.158Z,100057.25
2023-03-06T14:28:29.107Z,100051.25
2023-03-06T14:35:20.097Z,100042.19
2023-03-06T14:41:41.060Z,100031.47
2023-03-06T14:47:42.470Z,100041.72
2023-03-06T14:53:35.339Z,100051.25
2023-03-06T14:59:28.996Z,100039.50
2023-03-06T15:05:30.357Z,100039.75
2023-03-06T15:11:17.700Z,100030.41
2023-03-06T15:17:23.372Z,100026.19
2023-03-06T15:23:21.254Z,100018.44
2023-03-06T15:29:10.010Z,100009.66
2023-03-06T15:35:28.504Z,100006.44
2023-03-06T15:41:31.744Z,100007.97
2023-03-06T15:47:19.338Z,99987.69
2023-03-06T15:53:34.801Z,99984.50
2023-03-06T16:06:01.361Z,99993.47
2023-03-06T16:11:55.906Z,100004.31
2023-03-06T16:25:08.884Z,100001.41
2023-03-06T16:30:55.748Z,99988.69
2023-03-06T16:36:42.613Z,99981.41
2023-03-06T16:42:34.108Z,99972.97
2023-03-06T16:48:21.501Z,99983.16
2023-03-06T16:54:10.263Z,99995.72
2023-03-06T16:59:57.002Z,99990.72
2023-03-06T17:05:44.212Z,99987.81
2023-03-06T17:11:31.179Z,99991.34
2023-03-06T17:17:18.002Z,99998.34
2023-03-06T17:23:06.817Z,99989.75
2023-03-06T17:29:06.842Z,99989.66
2023-03-06T17:34:54.671Z,99984.63
2023-03-06T17:40:41.839Z,99987.97
2023-03-06T17:46:28.836Z,99981.13
2023-03-06T17:52:18.933Z,99981.63
2023-03-06T17:58:07.257Z,99987.44
2023-03-06T18:03:54.914Z,99992.28
2023-03-06T18:09:47.082Z,99990.13
2023-03-06T18:15:34.001Z,99999.19
2023-03-06T18:21:21.798Z,99986.84
2023-03-06T18:27:09.867Z,100001.72
2023-03-06T18:32:56.492Z,99995.41
2023-03-06T18:38:45.548Z,99999.13
2023-03-06T18:44:32.311Z,99986.19
2023-03-06T18:50:20.041Z,99974.84
2023-03-06T18:56:16.751Z,99980.19
2023-03-06T19:02:03.829Z,99976.75
2023-03-06T19:07:50.709Z,99970.19
2023-03-06T19:13:39.200Z,99965.97
2023-03-06T19:19:26.468Z,99953.22
2023-03-06T19:25:13.067Z,99960.00
2023-03-06T19:31:00.640Z,99950.34
2023-03-06T19:36:50.473Z,99951.81
2023-03-06T19:42:37.304Z,99948.00
2023-03-06T19:48:24.387Z,99954.44
2023-03-06T19:54:12.657Z,99952.94
2023-03-06T19:59:59.450Z,99938.19
2023-03-06T20:05:47.726Z,99938.84
2023-03-06T20:11:35.209Z,99925.63
2023-03-06T20:17:21.905Z,99939.16
2023-03-06T20:23:08.882Z,99931.41
2023-03-06T20:28:56.954Z,99914.88
2023-03-06T20:34:44.573Z,99924.91
2023-03-06T20:40:31.196Z,99922.78
2023-03-06T20:46:18.641Z,99909.69
2023-03-06T20:52:05.561Z,99913.88
2023-03-06T20:57:52.733Z,99920.50
2023-03-06T21:03:43.435Z,99912.91
2023-03-06T21:09:42.198Z,99918.72
2023-03-06T21:15:32.369Z,99915.59
2023-03-06T21:21:24.211Z,99914.28
2023-03-06T21:27:19.618Z,99910.59
2023-03-06T21:33:11.148Z,99899.56
2023-03-06T21:39:07.355Z,99902.75
2023-03-06T21:44:57.078Z,99891.97
2023-03-06T21:50:43.934Z,99887.34
2023-03-06T21:56:33.429Z,99883.63
2023-03-06T22:02:20.349Z,99874.41
2023-03-06T22:08:33.047Z,99872.34
2023-03-06T22:14:42.309Z,99871.03
2023-03-06T22:21:12.851Z,99861.47
2023-03-06T22:26:59.830Z,99857.84
2023-03-06T22:32:46.715Z,99849.34
2023-03-06T22:38:39.566Z,99847.03
2023-03-06T22:44:26.500Z,99835.13
2023-03-06T22:50:13.409Z,99824.00
2023-03-06T22:56:11.302Z,99821.66
2023-03-06T23:09:47.281Z,99812.44
2023-03-06T23:15:52.691Z,99803.50
2023-03-06T23:21:57.983Z,99799.78
2023-03-06T23:28:03.622Z,99789.81
2023-03-06T23:33:51.611Z,99794.06
2023-03-06T23:41:38.275Z,99789.00
2023-03-06T23:46:08.989Z,99789.16
2023-03-06T23:51:55.905Z,99793.91
2023-03-06T23:57:42.630Z,99777.59
